Time;durP1;ratioP1;P1;durP2;ratioP2;P2;SDS_P1;SDS_P2;PMS_P1;PMS_P2;Temp;Humidity;BMP_temperature;BMP_pressure;BME280_temperature;BME280_humidity;BME280_pressure;Samples;Min_cycle;Max_cycle;Signal;HPM_P1;HPM_P2
2021/09/02 00:00:04;;;;;;;5.93;4.47;;;16.90;99.90;;;;;;4107979;28;20035;-71
2021/09/02 00:02:05;;;;;;;6.68;4.10;;;16.80;99.90;;;;;;4103632;28;20103;-71
2021/09/02 00:04:05;;;;;;;7.15;3.90;;;16.80;99.90;;;;;;4108305;28;20027;-71
2021/09/02 00:06:06;;;;;;;6.57;4.47;;;16.80;99.90;;;;;;4109358;28;20026;-71
2021/09/02 00:08:06;;;;;;;5.70;4.32;;;16.70;99.90;;;;;;4106950;28;20126;-71
2021/09/02 00:10:07;;;;;;;7.03;4.15;;;16.70;99.90;;;;;;4104974;28;20377;-71
2021/09/02 00:12:08;;;;;;;5.53;3.78;;;16.70;99.90;;;;;;4106800;28;20495;-71
2021/09/02 00:14:09;;;;;;;5.25;3.63;;;16.70;99.90;;;;;;4107766;28;20506;-71
2021/09/02 00:16:09;;;;;;;5.53;4.00;;;16.70;99.90;;;;;;4091390;28;20070;-71
2021/09/02 00:18:10;;;;;;;8.57;4.13;;;16.70;99.90;;;;;;4089975;29;20039;-71
2021/09/02 00:20:11;;;;;;;6.82;3.60;;;16.60;99.90;;;;;;4109249;28;20038;-71
2021/09/02 00:22:12;;;;;;;5.32;3.58;;;16.60;99.90;;;;;;4091114;29;20043;-71
2021/09/02 00:24:13;;;;;;;4.50;3.40;;;16.60;99.90;;;;;;4109009;28;20035;-71
2021/09/02 00:26:14;;;;;;;5.85;3.90;;;16.50;99.90;;;;;;4088187;29;20115;-71
2021/09/02 00:28:14;;;;;;;9.20;4.15;;;16.60;99.90;;;;;;4109060;28;20031;-71
2021/09/02 00:30:15;;;;;;;7.18;4.00;;;16.50;99.90;;;;;;4089919;28;20375;-71
2021/09/02 00:32:17;;;;;;;8.35;3.85;;;16.50;99.90;;;;;;4108524;28;20034;-71
2021/09/02 00:34:18;;;;;;;7.72;3.85;;;16.50;99.90;;;;;;4105698;28;20112;-71
2021/09/02 00:36:19;;;;;;;5.35;3.63;;;16.50;99.90;;;;;;4091432;29;20189;-71
2021/09/02 00:38:19;;;;;;;5.97;3.92;;;16.50;99.90;;;;;;4089772;28;20139;-71
2021/09/02 00:40:20;;;;;;;5.63;3.92;;;16.40;99.90;;;;;;4108627;28;20547;-71
2021/09/02 00:42:21;;;;;;;7.22;3.78;;;16.40;99.90;;;;;;4107754;28;20039;-71
2021/09/02 00:44:35;;;;;;;7.65;3.58;;;16.40;99.90;;;;;;4091125;29;20043;-71
2021/09/02 00:46:35;;;;;;;7.15;3.60;;;16.30;99.90;;;;;;4105005;28;20108;-71
2021/09/02 00:48:36;;;;;;;8.65;4.15;;;16.30;99.90;;;;;;4108307;28;20030;-71
2021/09/02 00:50:36;;;;;;;4.13;3.40;;;16.30;99.90;;;;;;4107873;28;20035;-71
2021/09/02 00:52:37;;;;;;;6.05;3.55;;;16.30;99.90;;;;;;4108863;28;20089;-71
2021/09/02 00:54:40;;;;;;;7.45;4.07;;;16.30;99.90;;;;;;4108591;28;20133;-71
2021/09/02 00:56:41;;;;;;;7.70;3.95;;;16.20;99.90;;;;;;4107491;28;20446;-71
2021/09/02 00:58:43;;;;;;;5.28;3.25;;;16.30;99.90;;;;;;4090652;29;20031;-71
2021/09/02 01:00:43;;;;;;;6.03;3.53;;;16.20;99.90;;;;;;4106870;28;20128;-71
2021/09/02 01:02:45;;;;;;;6.72;3.88;;;16.20;99.90;;;;;;4106270;28;20270;-71
2021/09/02 01:04:47;;;;;;;6.38;3.67;;;16.20;99.90;;;;;;4106552;28;22391;-71
2021/09/02 01:06:48;;;;;;;8.10;4.00;;;16.20;99.90;;;;;;4107679;28;20027;-71
2021/09/02 01:08:49;;;;;;;7.03;3.80;;;16.20;99.90;;;;;;4106221;28;20348;-71
2021/09/02 01:10:50;;;;;;;6.40;3.67;;;16.10;99.90;;;;;;4087773;29;20047;-71
2021/09/02 01:12:51;;;;;;;5.95;3.58;;;16.10;99.90;;;;;;4104827;28;20498;-71
2021/09/02 01:14:52;;;;;;;6.32;3.28;;;16.10;99.90;;;;;;4103891;28;20042;-71
2021/09/02 01:16:56;;;;;;;8.48;3.72;;;16.10;99.90;;;;;;4106071;28;20134;-71
2021/09/02 01:18:56;;;;;;;7.13;3.72;;;16.00;99.90;;;;;;4105949;28;20023;-71
2021/09/02 01:20:58;;;;;;;5.47;3.72;;;16.00;99.90;;;;;;4103586;28;20034;-71
2021/09/02 01:23:01;;;;;;;4.97;3.43;;;16.00;99.90;;;;;;4107115;28;20031;-71
2021/09/02 01:25:07;;;;;;;5.78;3.17;;;16.00;99.90;;;;;;4106527;28;20039;-71
2021/09/02 01:27:08;;;;;;;8.23;4.07;;;16.00;99.90;;;;;;4107149;28;20031;-71
2021/09/02 01:29:11;;;;;;;7.72;4.00;;;16.00;99.90;;;;;;4089567;28;20055;-71
2021/09/02 01:31:18;;;;;;;7.10;3.58;;;16.00;99.90;;;;;;4090335;29;20111;-71
2021/09/02 01:33:18;;;;;;;5.55;3.33;;;16.00;99.90;;;;;;4107291;28;20531;-71
2021/09/02 01:35:20;;;;;;;5.55;3.30;;;16.00;99.90;;;;;;4101087;28;20081;-71
2021/09/02 01:37:22;;;;;;;5.13;3.30;;;16.00;99.90;;;;;;4106366;28;20039;-71
2021/09/02 01:39:22;;;;;;;6.93;3.85;;;15.90;99.90;;;;;;4106088;28;20043;-71
2021/09/02 01:41:23;;;;;;;4.50;3.20;;;15.90;99.90;;;;;;4106563;28;20569;-71
2021/09/02 01:43:24;;;;;;;8.65;3.92;;;15.90;99.90;;;;;;4090305;29;20348;-71
2021/09/02 01:45:24;;;;;;;6.72;4.18;;;15.90;99.90;;;;;;4107344;28;20046;-71
2021/09/02 01:47:27;;;;;;;6.10;3.88;;;15.80;99.90;;;;;;4105827;28;20891;-71
2021/09/02 01:49:27;;;;;;;6.60;4.07;;;15.80;99.90;;;;;;4106326;28;20042;-71
2021/09/02 01:51:28;;;;;;;6.50;4.28;;;15.80;99.90;;;;;;4103853;28;20038;-71
2021/09/02 01:53:29;;;;;;;9.95;4.45;;;15.80;99.90;;;;;;4103936;28;20418;-71
2021/09/02 01:55:30;;;;;;;6.47;4.10;;;15.80;99.90;;;;;;4107454;28;20046;-71
2021/09/02 01:57:31;;;;;;;6.30;3.70;;;15.80;99.90;;;;;;4105181;28;20046;-71
2021/09/02 01:59:31;;;;;;;6.38;3.97;;;15.70;99.90;;;;;;4106464;28;20049;-71
2021/09/02 02:01:32;;;;;;;8.45;4.43;;;15.70;99.90;;;;;;4107703;28;20052;-71
2021/09/02 02:03:32;;;;;;;6.47;4.10;;;15.70;99.90;;;;;;4104029;28;20372;-71
2021/09/02 02:05:34;;;;;;;6.57;3.72;;;15.70;99.90;;;;;;4107446;28;20023;-71
2021/09/02 02:07:35;;;;;;;5.72;3.67;;;15.70;99.90;;;;;;4107912;28;20034;-71
2021/09/02 02:09:36;;;;;;;8.63;4.05;;;15.60;99.90;;;;;;4106747;28;20039;-71
2021/09/02 02:11:36;;;;;;;5.25;3.67;;;15.60;99.90;;;;;;4106418;28;20414;-71
2021/09/02 02:13:37;;;;;;;5.78;3.80;;;15.60;99.90;;;;;;4090351;29;20551;-71
2021/09/02 02:15:38;;;;;;;5.95;3.80;;;15.60;99.90;;;;;;4102890;28;20030;-71
2021/09/02 02:17:39;;;;;;;7.68;4.53;;;15.60;99.90;;;;;;4090827;29;20039;-71
2021/09/02 02:19:40;;;;;;;8.23;4.20;;;15.60;99.90;;;;;;4108103;28;20039;-71
2021/09/02 02:21:41;;;;;;;7.05;3.53;;;15.60;99.90;;;;;;4107332;28;20034;-71
2021/09/02 02:23:41;;;;;;;7.72;4.20;;;15.60;99.90;;;;;;4107501;28;20027;-71
2021/09/02 02:25:42;;;;;;;5.95;3.95;;;15.50;99.90;;;;;;4107725;28;20102;-71
2021/09/02 02:27:43;;;;;;;6.35;4.10;;;15.50;99.90;;;;;;4107498;28;20057;-71
2021/09/02 02:29:44;;;;;;;7.05;3.83;;;15.50;99.90;;;;;;4107761;28;20049;-71
2021/09/02 02:31:44;;;;;;;6.43;4.20;;;15.50;99.90;;;;;;4106899;28;20039;-71
2021/09/02 02:33:45;;;;;;;6.57;4.07;;;15.40;99.90;;;;;;4107152;28;20039;-71
2021/09/02 02:35:45;;;;;;;5.88;4.20;;;15.40;99.90;;;;;;4107492;28;20101;-70
2021/09/02 02:37:47;;;;;;;7.00;4.05;;;15.40;99.90;;;;;;4107095;28;20031;-71
2021/09/02 02:39:48;;;;;;;5.78;4.25;;;15.40;99.90;;;;;;4106067;28;20039;-71
2021/09/02 02:41:49;;;;;;;6.72;4.18;;;15.40;99.90;;;;;;4106793;28;20065;-71
2021/09/02 02:43:49;;;;;;;6.05;4.00;;;15.40;99.90;;;;;;4107005;28;20049;-71
2021/09/02 02:45:50;;;;;;;5.03;3.13;;;15.40;99.90;;;;;;4089699;29;20788;-71
2021/09/02 02:47:50;;;;;;;5.38;3.60;;;15.40;99.90;;;;;;4107283;28;20140;-71
2021/09/02 02:49:51;;;;;;;5.13;3.13;;;15.40;99.90;;;;;;4106312;28;20882;-70
2021/09/02 02:51:52;;;;;;;6.22;3.75;;;15.30;99.90;;;;;;4107419;28;20042;-71
2021/09/02 02:53:52;;;;;;;7.78;3.90;;;15.30;99.90;;;;;;4109541;28;20494;-71
2021/09/02 02:55:53;;;;;;;5.90;3.88;;;15.30;99.90;;;;;;4109586;28;20035;-71
2021/09/02 02:57:54;;;;;;;5.72;3.88;;;15.30;99.90;;;;;;4110497;28;20042;-71
2021/09/02 02:59:55;;;;;;;6.28;3.88;;;15.30;99.90;;;;;;4110184;28;20043;-71
2021/09/02 03:01:55;;;;;;;4.88;3.53;;;15.30;99.90;;;;;;4109075;28;20086;-71
2021/09/02 03:03:56;;;;;;;4.82;3.38;;;15.30;99.90;;;;;;4112329;28;20034;-71
2021/09/02 03:05:56;;;;;;;9.90;3.88;;;15.30;99.90;;;;;;4088587;29;20114;-71
2021/09/02 03:07:57;;;;;;;8.57;4.75;;;15.30;99.90;;;;;;4092239;29;20047;-71
2021/09/02 03:09:58;;;;;;;5.88;4.35;;;15.30;99.90;;;;;;4082356;29;20043;-71
2021/09/02 03:11:58;;;;;;;5.60;3.72;;;15.20;99.90;;;;;;4092352;29;20027;-71
2021/09/02 03:13:59;;;;;;;6.95;3.95;;;15.20;99.90;;;;;;4109558;28;20423;-71
2021/09/02 03:16:00;;;;;;;6.22;3.95;;;15.20;99.90;;;;;;4092665;29;20139;-71
2021/09/02 03:18:00;;;;;;;6.93;4.03;;;15.20;99.90;;;;;;4109627;28;20039;-71
2021/09/02 03:20:02;;;;;;;6.43;3.97;;;15.20;99.90;;;;;;4109624;28;20042;-71
2021/09/02 03:22:04;;;;;;;6.90;4.13;;;15.10;99.90;;;;;;4110107;28;20049;-71
2021/09/02 03:24:04;;;;;;;8.00;4.03;;;15.10;99.90;;;;;;4109042;28;20038;-71
2021/09/02 03:26:05;;;;;;;5.30;3.65;;;15.10;99.90;;;;;;4110376;28;20419;-71
2021/09/02 03:28:06;;;;;;;7.28;4.35;;;15.10;99.90;;;;;;4108869;28;20035;-71
2021/09/02 03:30:08;;;;;;;6.40;4.18;;;15.10;99.90;;;;;;4109335;28;20038;-71
2021/09/02 03:32:09;;;;;;;6.55;4.15;;;15.00;99.90;;;;;;4109350;28;20568;-71
2021/09/02 03:34:09;;;;;;;6.13;4.00;;;15.00;99.90;;;;;;4109891;28;20031;-71
2021/09/02 03:36:10;;;;;;;5.65;3.58;;;15.00;99.90;;;;;;4109471;28;20562;-71
2021/09/02 03:38:11;;;;;;;7.15;4.63;;;15.00;99.90;;;;;;4108454;28;20495;-71
2021/09/02 03:40:12;;;;;;;9.20;4.60;;;15.00;99.90;;;;;;4109653;28;20039;-71
2021/09/02 03:42:12;;;;;;;5.53;3.55;;;15.00;99.90;;;;;;4109493;28;20035;-71
2021/09/02 03:44:13;;;;;;;5.47;3.67;;;15.00;99.90;;;;;;4109190;28;20054;-71
2021/09/02 03:46:13;;;;;;;4.18;3.30;;;14.90;99.90;;;;;;4108282;28;20114;-71
2021/09/02 03:48:14;;;;;;;7.35;3.63;;;15.00;99.90;;;;;;4109414;28;20039;-71
2021/09/02 03:50:17;;;;;;;7.18;3.88;;;14.90;99.90;;;;;;4091846;28;20035;-70
2021/09/02 03:52:17;;;;;;;;;;;14.90;99.90;;;;;;4109950;28;20043;-71
2021/09/02 03:54:18;;;;;;;6.43;3.83;;;14.90;99.90;;;;;;4109143;28;19958;-71
2021/09/02 03:56:19;;;;;;;9.90;4.45;;;14.90;99.90;;;;;;4109432;28;20054;-71
2021/09/02 03:58:19;;;;;;;8.20;4.40;;;14.90;99.90;;;;;;4109596;28;20152;-71
2021/09/02 04:00:20;;;;;;;6.55;4.57;;;14.90;99.90;;;;;;4109210;28;20038;-71
2021/09/02 04:02:20;;;;;;;6.15;4.28;;;14.90;99.90;;;;;;4109059;28;20588;-71
2021/09/02 04:04:21;;;;;;;5.60;4.00;;;14.90;99.90;;;;;;4109194;28;20026;-70
2021/09/02 04:06:22;;;;;;;4.90;3.60;;;14.80;99.90;;;;;;4108080;28;20047;-71
2021/09/02 04:08:22;;;;;;;5.70;4.07;;;14.90;99.90;;;;;;4092055;29;20086;-71
2021/09/02 04:10:23;;;;;;;6.90;4.20;;;14.90;99.90;;;;;;4109443;28;20035;-71
2021/09/02 04:12:24;;;;;;;6.97;4.32;;;14.80;99.90;;;;;;4109400;28;20471;-71
2021/09/02 04:14:24;;;;;;;7.18;4.78;;;14.90;99.90;;;;;;4109482;28;20035;-71
2021/09/02 04:16:25;;;;;;;7.72;4.85;;;14.90;99.90;;;;;;4108501;28;20043;-71
2021/09/02 04:18:25;;;;;;;6.97;5.07;;;14.90;99.90;;;;;;4105243;28;20089;-71
2021/09/02 04:20:26;;;;;;;9.75;4.70;;;14.90;99.90;;;;;;4107196;28;20053;-71
2021/09/02 04:22:27;;;;;;;8.00;5.43;;;14.90;99.90;;;;;;4107115;28;20027;-71
2021/09/02 04:24:27;;;;;;;9.63;5.32;;;14.90;99.90;;;;;;4103207;28;20184;-71
2021/09/02 04:26:28;;;;;;;6.25;4.43;;;14.90;99.90;;;;;;4107345;28;20121;-71
2021/09/02 04:28:29;;;;;;;8.40;4.97;;;14.90;99.90;;;;;;4102347;28;20034;-71
2021/09/02 04:30:29;;;;;;;9.85;5.57;;;14.80;99.90;;;;;;4103545;28;20090;-71
2021/09/02 04:32:30;;;;;;;7.97;5.63;;;14.80;99.90;;;;;;4090194;28;20488;-71
2021/09/02 04:34:31;;;;;;;7.10;4.88;;;14.80;99.90;;;;;;4105235;28;20042;-71
2021/09/02 04:36:31;;;;;;;9.82;5.32;;;14.80;99.90;;;;;;4103369;28;20118;-71
2021/09/02 04:38:32;;;;;;;8.30;5.13;;;14.90;99.90;;;;;;4105284;28;20039;-71
2021/09/02 04:40:32;;;;;;;7.93;5.43;;;14.80;99.90;;;;;;4104233;28;20122;-71
2021/09/02 04:42:34;;;;;;;7.70;5.15;;;14.80;99.90;;;;;;4106445;28;20050;-71
2021/09/02 04:44:34;;;;;;;6.20;4.47;;;14.90;99.90;;;;;;4090157;29;20048;-71
2021/09/02 04:46:35;;;;;;;9.10;5.15;;;14.90;99.90;;;;;;4108457;28;20483;-71
2021/09/02 04:48:35;;;;;;;9.05;5.53;;;14.90;99.90;;;;;;4106699;28;20023;-71
2021/09/02 04:50:36;;;;;;;8.68;5.38;;;14.90;99.90;;;;;;4107709;28;20101;-70
2021/09/02 04:52:37;;;;;;;9.65;5.15;;;14.90;99.90;;;;;;4091801;29;20039;-71
2021/09/02 04:54:37;;;;;;;8.15;5.05;;;14.90;99.90;;;;;;4108588;28;20086;-71
2021/09/02 04:56:38;;;;;;;10.13;6.10;;;14.90;99.90;;;;;;4109038;28;20046;-71
2021/09/02 04:58:39;;;;;;;9.25;5.45;;;14.90;99.90;;;;;;4108656;28;20407;-71
2021/09/02 05:00:41;;;;;;;8.60;5.25;;;14.90;99.90;;;;;;4107452;28;20031;-71
2021/09/02 05:02:41;;;;;;;8.35;5.25;;;14.90;99.90;;;;;;4108254;28;20035;-70
2021/09/02 05:04:42;;;;;;;10.82;6.45;;;14.90;99.90;;;;;;4108801;28;20073;-71
2021/09/02 05:06:42;;;;;;;8.20;5.07;;;14.90;99.90;;;;;;4090747;29;20497;-71
2021/09/02 05:08:43;;;;;;;8.40;5.25;;;14.90;99.90;;;;;;4108305;28;20054;-71
2021/09/02 05:10:44;;;;;;;7.65;5.05;;;15.00;99.90;;;;;;4090815;29;20027;-71
2021/09/02 05:12:44;;;;;;;8.38;5.43;;;14.90;99.90;;;;;;4091369;28;20092;-71
2021/09/02 05:14:46;;;;;;;9.00;5.45;;;15.00;99.90;;;;;;4107434;28;20030;-71
2021/09/02 05:16:46;;;;;;;7.88;5.25;;;15.00;99.90;;;;;;4104902;28;20069;-71
2021/09/02 05:18:47;;;;;;;10.18;5.47;;;15.00;99.90;;;;;;4109213;28;20034;-71
2021/09/02 05:20:48;;;;;;;6.57;4.80;;;15.00;99.90;;;;;;4091953;28;20137;-71
2021/09/02 05:22:49;;;;;;;6.25;4.85;;;15.00;99.90;;;;;;4097521;28;20038;-71
2021/09/02 05:24:49;;;;;;;7.32;4.78;;;15.00;99.90;;;;;;4106106;28;20526;-71
2021/09/02 05:26:50;;;;;;;7.15;5.43;;;15.00;99.90;;;;;;4108849;28;20057;-71
2021/09/02 05:28:51;;;;;;;7.35;5.18;;;15.00;99.90;;;;;;4107587;28;20038;-71
2021/09/02 05:30:51;;;;;;;10.05;5.47;;;15.00;99.90;;;;;;4091265;28;20133;-71
2021/09/02 05:32:52;;;;;;;9.20;5.82;;;15.00;99.90;;;;;;4107044;28;20035;-71
2021/09/02 05:34:53;;;;;;;8.90;5.95;;;15.00;99.90;;;;;;4110037;28;20031;-71
2021/09/02 05:36:53;;;;;;;8.70;5.40;;;15.00;99.90;;;;;;4109034;28;20027;-71
2021/09/02 05:38:54;;;;;;;7.03;4.93;;;15.10;99.90;;;;;;4109925;28;20109;-71
2021/09/02 05:40:55;;;;;;;7.63;5.57;;;15.10;99.90;;;;;;4106890;28;20031;-71
2021/09/02 05:42:55;;;;;;;10.70;5.45;;;15.10;99.90;;;;;;4109475;28;20060;-71
2021/09/02 05:44:56;;;;;;;10.15;6.75;;;15.10;99.90;;;;;;4111998;28;20035;-70
2021/09/02 05:46:56;;;;;;;11.07;6.03;;;15.10;99.90;;;;;;4107687;28;20026;-71
2021/09/02 05:48:57;;;;;;;8.27;5.75;;;15.10;99.90;;;;;;4107335;28;20027;-71
2021/09/02 05:50:58;;;;;;;8.90;5.88;;;15.10;99.90;;;;;;4093607;28;20547;-71
2021/09/02 05:52:58;;;;;;;11.10;5.82;;;15.10;99.90;;;;;;4093380;28;20091;-71
2021/09/02 05:54:59;;;;;;;9.18;6.20;;;15.10;99.90;;;;;;4109866;28;20069;-71
2021/09/02 05:57:00;;;;;;;10.93;6.22;;;15.10;99.90;;;;;;4109601;28;20030;-71
2021/09/02 05:59:01;;;;;;;11.85;7.10;;;15.20;99.90;;;;;;4111071;28;20049;-71
2021/09/02 06:01:02;;;;;;;10.68;6.55;;;15.20;99.90;;;;;;4108842;28;20059;-71
2021/09/02 06:03:02;;;;;;;10.63;6.65;;;15.20;99.90;;;;;;4109657;28;20142;-71
2021/09/02 06:05:05;;;;;;;11.02;6.50;;;15.20;99.90;;;;;;4111793;28;20125;-71
2021/09/02 06:07:06;;;;;;;10.98;7.18;;;15.20;99.90;;;;;;4091251;28;20031;-71
2021/09/02 06:09:07;;;;;;;11.10;7.75;;;15.20;99.90;;;;;;4107765;28;20113;-71
2021/09/02 06:11:08;;;;;;;15.52;8.07;;;15.20;99.90;;;;;;4104898;28;20117;-71
2021/09/02 06:13:09;;;;;;;15.15;8.07;;;15.20;99.90;;;;;;4103867;28;20059;-71
2021/09/02 06:15:11;;;;;;;11.57;7.43;;;15.20;99.90;;;;;;4110549;28;20101;-71
2021/09/02 06:17:11;;;;;;;14.23;8.48;;;15.20;99.90;;;;;;4106232;28;20067;-71
2021/09/02 06:19:12;;;;;;;14.65;8.68;;;15.30;99.90;;;;;;4103317;28;20081;-71
2021/09/02 06:21:13;;;;;;;11.88;8.20;;;15.30;99.90;;;;;;4088186;28;20073;-71
2021/09/02 06:23:13;;;;;;;15.02;8.27;;;15.30;99.90;;;;;;4103877;28;20114;-71
2021/09/02 06:25:14;;;;;;;13.02;8.60;;;15.30;99.90;;;;;;4103858;28;20035;-71
2021/09/02 06:27:15;;;;;;;16.05;9.20;;;15.30;99.90;;;;;;4109755;28;20041;-71
2021/09/02 06:29:15;;;;;;;15.90;8.95;;;15.40;99.90;;;;;;4105083;28;20114;-71
2021/09/02 06:31:16;;;;;;;19.38;10.07;;;15.40;99.90;;;;;;4104097;28;20035;-71
2021/09/02 06:33:16;;;;;;;15.75;9.60;;;15.50;99.90;;;;;;4105308;28;20034;-71
2021/09/02 06:35:17;;;;;;;13.50;9.15;;;15.50;99.90;;;;;;4104508;28;20039;-71
2021/09/02 06:37:18;;;;;;;14.02;9.45;;;15.50;99.90;;;;;;4102778;28;20032;-71
2021/09/02 06:39:18;;;;;;;14.73;8.88;;;15.50;99.90;;;;;;4108233;28;20121;-72
2021/09/02 06:41:19;;;;;;;15.27;9.45;;;15.50;99.90;;;;;;4109872;28;20035;-72
2021/09/02 06:43:20;;;;;;;18.60;9.68;;;15.60;99.90;;;;;;4112063;28;20114;-71
2021/09/02 06:45:20;;;;;;;16.67;9.88;;;15.60;99.90;;;;;;4106814;28;20027;-72
2021/09/02 06:47:21;;;;;;;16.38;10.27;;;15.60;99.90;;;;;;4107746;28;20027;-72
2021/09/02 06:49:22;;;;;;;14.27;9.65;;;15.60;99.90;;;;;;4107500;28;20178;-71
2021/09/02 06:51:22;;;;;;;16.77;10.65;;;15.60;99.90;;;;;;4102119;28;20031;-72
2021/09/02 06:53:23;;;;;;;16.65;9.75;;;15.70;99.90;;;;;;4107711;28;20019;-72
2021/09/02 06:55:24;;;;;;;16.77;9.70;;;15.60;99.90;;;;;;4091502;28;20035;-72
2021/09/02 06:57:24;;;;;;;15.90;9.68;;;15.70;99.90;;;;;;4107589;28;20489;-72
2021/09/02 06:59:25;;;;;;;16.30;9.50;;;15.70;99.90;;;;;;4105023;28;20043;-72
2021/09/02 07:01:26;;;;;;;14.60;9.75;;;15.70;99.90;;;;;;4102236;28;20045;-72
2021/09/02 07:03:26;;;;;;;18.13;9.60;;;15.70;99.90;;;;;;4086815;28;20039;-72
2021/09/02 07:05:27;;;;;;;17.88;10.75;;;15.70;99.90;;;;;;4091835;28;20568;-72
2021/09/02 07:07:28;;;;;;;15.80;10.43;;;15.80;99.90;;;;;;4090461;28;20043;-72
2021/09/02 07:09:28;;;;;;;16.92;10.23;;;15.70;99.90;;;;;;4107516;28;20102;-72
2021/09/02 07:11:29;;;;;;;13.13;9.20;;;15.80;99.90;;;;;;4086842;28;20035;-72
2021/09/02 07:13:30;;;;;;;17.98;10.25;;;15.80;99.90;;;;;;4092137;28;20035;-72
2021/09/02 07:15:31;;;;;;;16.30;10.05;;;15.80;99.90;;;;;;4089911;28;20059;-72
2021/09/02 07:17:32;;;;;;;16.40;10.68;;;15.90;99.90;;;;;;4107325;28;20868;-72
2021/09/02 07:19:32;;;;;;;18.70;10.25;;;15.90;99.90;;;;;;4088561;28;20475;-72
2021/09/02 07:21:33;;;;;;;15.23;9.90;;;16.00;99.90;;;;;;4103675;28;20491;-71
2021/09/02 07:23:34;;;;;;;16.50;10.38;;;16.00;99.90;;;;;;4105639;28;20058;-71
2021/09/02 07:25:34;;;;;;;17.92;10.32;;;16.10;99.90;;;;;;4106591;28;20085;-71
2021/09/02 07:27:35;;;;;;;16.23;9.80;;;16.20;99.90;;;;;;4110989;28;20042;-71
2021/09/02 07:29:35;;;;;;;18.65;10.20;;;16.20;99.90;;;;;;4104945;28;20039;-71
2021/09/02 07:31:39;;;;;;;19.90;11.25;;;16.20;99.90;;;;;;4102323;28;20553;-71
2021/09/02 07:33:40;;;;;;;17.92;10.07;;;16.20;99.90;;;;;;4107766;28;20122;-71
2021/09/02 07:35:40;;;;;;;17.80;10.55;;;16.30;99.90;;;;;;4105857;28;20066;-71
2021/09/02 07:37:41;;;;;;;15.52;9.77;;;16.40;99.90;;;;;;4102690;28;20038;-71
2021/09/02 07:39:42;;;;;;;25.98;12.30;;;16.40;99.90;;;;;;4106149;28;20868;-71
2021/09/02 07:41:43;;;;;;;19.45;11.45;;;16.40;99.90;;;;;;4113362;28;20054;-71
2021/09/02 07:43:44;;;;;;;24.33;11.93;;;16.40;99.90;;;;;;4106890;28;20107;-72
2021/09/02 07:45:45;;;;;;;22.92;11.93;;;16.30;99.90;;;;;;4109050;28;20097;-71
2021/09/02 07:47:45;;;;;;;19.52;10.25;;;16.40;99.90;;;;;;4108919;28;20061;-71
2021/09/02 07:49:46;;;;;;;14.85;9.07;;;16.50;99.90;;;;;;4109616;28;20057;-71
2021/09/02 07:51:46;;;;;;;20.08;9.77;;;16.60;99.90;;;;;;4091052;28;20039;-71
2021/09/02 07:53:47;;;;;;;19.73;10.93;;;16.60;99.90;;;;;;4109844;28;20027;-71
2021/09/02 07:55:48;;;;;;;23.98;11.48;;;16.50;99.90;;;;;;4108944;28;20055;-71
2021/09/02 07:57:49;;;;;;;25.08;12.63;;;16.60;99.90;;;;;;4109842;28;20491;-71
2021/09/02 07:59:49;;;;;;;21.02;11.25;;;16.60;99.90;;;;;;4092572;28;20031;-71
2021/09/02 08:01:50;;;;;;;21.42;10.52;;;16.60;99.90;;;;;;4089870;28;20030;-70
2021/09/02 08:03:51;;;;;;;22.33;11.18;;;16.60;99.90;;;;;;4107339;28;20043;-71
2021/09/02 08:05:52;;;;;;;23.30;10.95;;;16.70;99.90;;;;;;4103370;28;20054;-70
2021/09/02 08:07:53;;;;;;;24.88;10.00;;;16.80;99.90;;;;;;4086475;28;20059;-70
2021/09/02 08:09:54;;;;;;;23.35;11.15;;;16.80;99.90;;;;;;4106615;28;20034;-70
2021/09/02 08:11:56;;;;;;;24.25;11.25;;;16.90;99.90;;;;;;4104283;28;20494;-70
2021/09/02 08:13:57;;;;;;;21.88;11.07;;;16.90;99.90;;;;;;4101076;28;20042;-70
2021/09/02 08:15:58;;;;;;;21.20;10.85;;;17.00;99.90;;;;;;4084205;28;20047;-71
2021/09/02 08:17:59;;;;;;;22.60;11.45;;;17.00;99.90;;;;;;4074963;28;20117;-71
2021/09/02 08:20:00;;;;;;;17.45;9.85;;;17.00;99.90;;;;;;4102754;28;20043;-70
2021/09/02 08:22:01;;;;;;;20.20;10.50;;;17.10;99.90;;;;;;4099643;28;20447;-70
2021/09/02 08:24:02;;;;;;;17.38;10.30;;;17.20;99.90;;;;;;4105571;28;20043;-70
2021/09/02 08:26:03;;;;;;;21.77;9.48;;;17.20;99.90;;;;;;4106859;28;20035;-70
2021/09/02 08:28:04;;;;;;;21.45;10.18;;;17.30;99.90;;;;;;4086131;28;20127;-70
2021/09/02 08:30:06;;;;;;;13.90;8.68;;;17.40;99.90;;;;;;4108032;28;20503;-70
2021/09/02 08:32:06;;;;;;;24.98;9.98;;;17.50;99.90;;;;;;4089131;28;20129;-70
2021/09/02 08:34:07;;;;;;;16.17;9.68;;;17.60;99.90;;;;;;4108423;28;20046;-70
2021/09/02 08:36:08;;;;;;;18.55;9.50;;;17.70;99.90;;;;;;4091731;28;20050;-70
2021/09/02 08:38:10;;;;;;;16.98;9.52;;;17.80;99.90;;;;;;4112189;28;20065;-70
2021/09/02 08:40:11;;;;;;;;;;;17.90;99.90;;;;;;4091046;28;20042;-70
2021/09/02 08:42:15;;;;;;;19.15;8.98;;;18.00;99.90;;;;;;4105915;28;19952;-70
2021/09/02 08:44:16;;;;;;;16.58;8.88;;;18.10;99.90;;;;;;4091739;28;20035;-70
2021/09/02 08:46:16;;;;;;;19.77;9.75;;;18.10;99.90;;;;;;4090319;28;20039;-70
2021/09/02 08:48:19;;;;;;;19.35;8.05;;;18.20;99.90;;;;;;4108760;28;20034;-70
2021/09/02 08:50:23;;;;;;;19.15;8.35;;;18.30;99.90;;;;;;4104458;28;20038;-70
2021/09/02 08:52:27;;;;;;;15.40;8.65;;;18.50;99.90;;;;;;4090570;28;20126;-70
2021/09/02 08:54:28;;;;;;;13.32;7.07;;;18.60;99.90;;;;;;4092103;28;20074;-70
2021/09/02 08:56:30;;;;;;;13.90;7.32;;;18.80;99.90;;;;;;4095898;28;20138;-70
2021/09/02 08:58:32;;;;;;;14.60;8.32;;;18.90;99.90;;;;;;4075990;29;20058;-70
2021/09/02 09:00:33;;;;;;;16.48;8.77;;;19.00;99.90;;;;;;4091004;28;20078;-70
2021/09/02 09:02:34;;;;;;;16.48;9.13;;;19.00;99.90;;;;;;4108677;28;20038;-70
2021/09/02 09:04:35;;;;;;;15.27;8.18;;;19.00;99.90;;;;;;4089075;28;20043;-70
2021/09/02 09:06:35;;;;;;;13.13;7.05;;;19.10;99.90;;;;;;4107890;28;20523;-71
2021/09/02 09:08:38;;;;;;;17.30;8.82;;;19.20;99.90;;;;;;4091074;28;20419;-70
2021/09/02 09:10:40;;;;;;;18.80;8.57;;;19.20;99.90;;;;;;4105631;28;20718;-70
2021/09/02 09:12:44;;;;;;;16.70;7.90;;;19.20;99.90;;;;;;4106985;28;20558;-70
2021/09/02 09:14:54;;;;;;;13.57;7.32;;;19.20;99.90;;;;;;4108003;28;20034;-70
2021/09/02 09:16:58;;;;;;;14.30;7.88;;;19.30;99.90;;;;;;4105496;28;20043;-70
2021/09/02 09:18:58;;;;;;;17.88;8.40;;;19.40;99.90;;;;;;4105533;28;20439;-70
2021/09/02 09:21:14;;;;;;;16.95;8.70;;;19.50;99.90;;;;;;4107039;28;20046;-70
2021/09/02 09:23:15;;;;;;;14.40;8.20;;;19.50;99.90;;;;;;4090689;28;20044;-70
2021/09/02 09:25:16;;;;;;;16.33;7.25;;;19.50;99.90;;;;;;4104667;28;20039;-70
2021/09/02 09:27:35;;;;;;;14.73;7.75;;;19.60;99.90;;;;;;4105914;28;20046;-70
2021/09/02 09:29:36;;;;;;;14.85;7.80;;;19.70;99.90;;;;;;4104418;28;20038;-70
2021/09/02 09:31:37;;;;;;;24.58;10.55;;;19.80;99.90;;;;;;4107114;28;20435;-71
2021/09/02 09:33:52;;;;;;;14.63;7.90;;;19.90;99.90;;;;;;4104843;28;20031;-70
2021/09/02 09:35:55;;;;;;;15.18;8.50;;;19.90;99.90;;;;;;4089514;28;20043;-70
2021/09/02 09:38:06;;;;;;;14.02;7.88;;;19.90;99.90;;;;;;4108058;28;20097;-70
2021/09/02 09:40:09;;;;;;;21.58;9.63;;;19.90;99.90;;;;;;4087902;28;20042;-70
2021/09/02 09:42:11;;;;;;;16.40;8.45;;;19.90;99.90;;;;;;4106439;28;20043;-70
2021/09/02 09:44:15;;;;;;;16.40;8.43;;;19.80;99.90;;;;;;4092212;28;20124;-71
2021/09/02 09:46:15;;;;;;;12.80;7.68;;;19.80;99.90;;;;;;4106629;28;20094;-71
2021/09/02 09:48:22;;;;;;;12.02;7.88;;;19.80;99.90;;;;;;4107586;28;20034;-70
2021/09/02 09:50:23;;;;;;;19.05;9.60;;;19.80;99.90;;;;;;4104882;28;20134;-71
2021/09/02 09:52:28;;;;;;;18.88;10.27;;;19.80;99.90;;;;;;4108902;28;20054;-70
2021/09/02 09:54:29;;;;;;;17.05;9.63;;;19.70;99.90;;;;;;4102321;28;20054;-71
2021/09/02 09:56:30;;;;;;;13.10;7.93;;;19.70;99.90;;;;;;4105121;28;20047;-70
2021/09/02 09:58:31;;;;;;;21.92;10.82;;;19.70;99.90;;;;;;4110516;28;20035;-71
2021/09/02 10:00:31;;;;;;;17.95;9.38;;;19.70;99.90;;;;;;4088456;28;20031;-70
2021/09/02 10:02:35;;;;;;;15.30;8.27;;;19.70;99.90;;;;;;4105352;28;20093;-71
2021/09/02 10:04:36;;;;;;;14.60;8.77;;;19.80;99.90;;;;;;4104797;28;20039;-70
2021/09/02 10:06:37;;;;;;;17.90;10.57;;;19.90;99.90;;;;;;4073208;29;20036;-70
2021/09/02 10:08:40;;;;;;;19.52;10.20;;;19.90;99.90;;;;;;4109686;28;20541;-70
2021/09/02 10:10:40;;;;;;;;;;;19.90;99.90;;;;;;4106748;28;20073;-70
2021/09/02 10:12:43;;;;;;;18.65;8.88;;;19.90;99.90;;;;;;4104326;28;20026;-70
2021/09/02 10:14:44;;;;;;;19.10;10.15;;;20.00;99.90;;;;;;4105578;28;20648;-70
2021/09/02 10:16:44;;;;;;;17.65;9.13;;;20.00;99.90;;;;;;4106917;28;20046;-71
2021/09/02 10:18:47;;;;;;;13.82;9.00;;;20.10;99.90;;;;;;4090351;28;20043;-70
2021/09/02 10:20:48;;;;;;;;;;;20.20;99.90;;;;;;4106163;28;20031;-70
2021/09/02 10:22:53;;;;;;;15.85;8.93;;;20.20;99.90;;;;;;4089584;28;19945;-71
2021/09/02 10:24:55;;;;;;;16.63;9.70;;;20.30;99.90;;;;;;4088303;28;20058;-70
2021/09/02 10:26:56;;;;;;;16.48;9.60;;;20.30;99.90;;;;;;4109002;28;20035;-70